sensor_id;sensor_type;location;lat;lon;timestamp;temperature;humidity
46085;DHT22;31823;47.032;8.310;2023-05-07T00:00:36;12.40;99.90
46085;DHT22;31823;47.032;8.310;2023-05-07T00:03:02;12.40;99.90
46085;DHT22;31823;47.032;8.310;2023-05-07T00:05:28;12.40;99.90
46085;DHT22;31823;47.032;8.310;2023-05-07T00:07:54;12.40;99.90
46085;DHT22;31823;47.032;8.310;2023-05-07T00:10:19;12.40;99.90
46085;DHT22;31823;47.032;8.310;2023-05-07T00:12:45;12.30;99.90
46085;DHT22;31823;47.032;8.310;2023-05-07T00:15:11;12.40;99.90
46085;DHT22;31823;47.032;8.310;2023-05-07T00:17:37;12.20;99.90
46085;DHT22;31823;47.032;8.310;2023-05-07T00:20:03;12.20;99.90
46085;DHT22;31823;47.032;8.310;2023-05-07T00:22:31;12.20;99.90
46085;DHT22;31823;47.032;8.310;2023-05-07T00:24:57;12.20;99.90
46085;DHT22;31823;47.032;8.310;2023-05-07T00:27:23;12.20;99.90
46085;DHT22;31823;47.032;8.310;2023-05-07T00:29:49;12.20;99.90
46085;DHT22;31823;47.032;8.310;2023-05-07T00:32:14;12.10;99.90
46085;DHT22;31823;47.032;8.310;2023-05-07T00:34:40;12.10;99.90
46085;DHT22;31823;47.032;8.310;2023-05-07T00:37:06;12.10;99.90
46085;DHT22;31823;47.032;8.310;2023-05-07T00:39:35;12.10;99.90
46085;DHT22;31823;47.032;8.310;2023-05-07T00:42:01;12.00;99.90
46085;DHT22;31823;47.032;8.310;2023-05-07T00:44:28;12.00;99.90
46085;DHT22;31823;47.032;8.310;2023-05-07T00:46:56;11.90;99.90
46085;DHT22;31823;47.032;8.310;2023-05-07T00:49:22;12.00;99.90
46085;DHT22;31823;47.032;8.310;2023-05-07T00:51:48;12.00;99.90
46085;DHT22;31823;47.032;8.310;2023-05-07T00:54:15;12.00;99.90
46085;DHT22;31823;47.032;8.310;2023-05-07T00:56:40;12.10;99.90
46085;DHT22;31823;47.032;8.310;2023-05-07T00:59:06;12.10;99.90
46085;DHT22;31823;47.032;8.310;2023-05-07T01:01:32;12.10;99.90
46085;DHT22;31823;47.032;8.310;2023-05-07T01:03:57;12.20;99.90
46085;DHT22;31823;47.032;8.310;2023-05-07T01:06:26;12.20;99.90
46085;DHT22;31823;47.032;8.310;2023-05-07T01:08:53;12.10;99.90
46085;DHT22;31823;47.032;8.310;2023-05-07T01:11:22;12.10;99.90
46085;DHT22;31823;47.032;8.310;2023-05-07T01:13:49;12.00;99.90
46085;DHT22;31823;47.032;8.310;2023-05-07T01:16:15;12.00;99.90
46085;DHT22;31823;47.032;8.310;2023-05-07T01:18:41;12.00;99.90
46085;DHT22;31823;47.032;8.310;2023-05-07T01:21:07;11.90;99.90
46085;DHT22;31823;47.032;8.310;2023-05-07T01:23:36;11.90;99.90
46085;DHT22;31823;47.032;8.310;2023-05-07T01:26:02;11.90;99.90
46085;DHT22;31823;47.032;8.310;2023-05-07T01:28:27;11.90;99.90
46085;DHT22;31823;47.032;8.310;2023-05-07T01:30:56;11.90;99.90
46085;DHT22;31823;47.032;8.310;2023-05-07T01:33:24;11.90;99.90
46085;DHT22;31823;47.032;8.310;2023-05-07T01:35:53;11.90;99.90
46085;DHT22;31823;47.032;8.310;2023-05-07T01:38:20;11.90;99.90
46085;DHT22;31823;47.032;8.310;2023-05-07T01:40:46;11.80;99.90
46085;DHT22;31823;47.032;8.310;2023-05-07T01:43:12;11.90;99.90
46085;DHT22;31823;47.032;8.310;2023-05-07T01:45:38;11.90;99.90
46085;DHT22;31823;47.032;8.310;2023-05-07T01:48:05;11.90;99.90
46085;DHT22;31823;47.032;8.310;2023-05-07T01:50:32;11.90;99.90
46085;DHT22;31823;47.032;8.310;2023-05-07T01:52:57;11.80;99.90
46085;DHT22;31823;47.032;8.310;2023-05-07T01:55:23;11.80;99.90
46085;DHT22;31823;47.032;8.310;2023-05-07T01:57:50;11.80;99.90
46085;DHT22;31823;47.032;8.310;2023-05-07T02:00:16;11.80;99.90
46085;DHT22;31823;47.032;8.310;2023-05-07T02:02:42;11.80;99.90
46085;DHT22;31823;47.032;8.310;2023-05-07T02:05:08;11.70;99.90
46085;DHT22;31823;47.032;8.310;2023-05-07T02:07:34;11.70;99.90
46085;DHT22;31823;47.032;8.310;2023-05-07T02:09:59;11.70;99.90
46085;DHT22;31823;47.032;8.310;2023-05-07T02:12:25;11.70;99.90
46085;DHT22;31823;47.032;8.310;2023-05-07T02:14:51;11.70;99.90
46085;DHT22;31823;47.032;8.310;2023-05-07T02:17:16;11.70;99.90
46085;DHT22;31823;47.032;8.310;2023-05-07T02:19:42;11.70;99.90
46085;DHT22;31823;47.032;8.310;2023-05-07T02:22:09;11.60;99.90
46085;DHT22;31823;47.032;8.310;2023-05-07T02:24:34;11.70;99.90
46085;DHT22;31823;47.032;8.310;2023-05-07T02:27:00;11.90;99.90
46085;DHT22;31823;47.032;8.310;2023-05-07T02:29:25;11.90;99.90
46085;DHT22;31823;47.032;8.310;2023-05-07T02:31:51;11.80;99.90
46085;DHT22;31823;47.032;8.310;2023-05-07T02:34:18;11.80;99.90
46085;DHT22;31823;47.032;8.310;2023-05-07T02:36:44;11.80;99.90
46085;DHT22;31823;47.032;8.310;2023-05-07T02:39:11;11.70;99.90
46085;DHT22;31823;47.032;8.310;2023-05-07T02:41:37;11.70;99.90
46085;DHT22;31823;47.032;8.310;2023-05-07T02:44:02;11.70;99.90
46085;DHT22;31823;47.032;8.310;2023-05-07T02:46:28;11.70;99.90
46085;DHT22;31823;47.032;8.310;2023-05-07T02:48:54;11.60;99.90
46085;DHT22;31823;47.032;8.310;2023-05-07T02:51:21;11.70;99.90
46085;DHT22;31823;47.032;8.310;2023-05-07T02:53:47;11.60;99.90
46085;DHT22;31823;47.032;8.310;2023-05-07T02:56:12;11.60;99.90
46085;DHT22;31823;47.032;8.310;2023-05-07T02:58:38;11.60;99.90
46085;DHT22;31823;47.032;8.310;2023-05-07T03:01:09;11.60;99.90
46085;DHT22;31823;47.032;8.310;2023-05-07T03:03:35;11.50;99.90
46085;DHT22;31823;47.032;8.310;2023-05-07T03:06:02;11.50;99.90
46085;DHT22;31823;47.032;8.310;2023-05-07T03:08:27;11.70;99.90
46085;DHT22;31823;47.032;8.310;2023-05-07T03:10:53;11.80;99.90
46085;DHT22;31823;47.032;8.310;2023-05-07T03:13:18;11.70;99.90
46085;DHT22;31823;47.032;8.310;2023-05-07T03:15:44;11.70;99.90
46085;DHT22;31823;47.032;8.310;2023-05-07T03:18:10;11.60;99.90
46085;DHT22;31823;47.032;8.310;2023-05-07T03:20:36;11.60;99.90
46085;DHT22;31823;47.032;8.310;2023-05-07T03:23:02;11.80;99.90
46085;DHT22;31823;47.032;8.310;2023-05-07T03:25:28;11.70;99.90
46085;DHT22;31823;47.032;8.310;2023-05-07T03:27:55;11.60;99.90
46085;DHT22;31823;47.032;8.310;2023-05-07T03:30:21;11.70;99.90
46085;DHT22;31823;47.032;8.310;2023-05-07T03:32:46;11.70;99.90
46085;DHT22;31823;47.032;8.310;2023-05-07T03:35:12;11.80;99.90
46085;DHT22;31823;47.032;8.310;2023-05-07T03:37:38;11.70;99.90
46085;DHT22;31823;47.032;8.310;2023-05-07T03:40:05;11.70;99.90
46085;DHT22;31823;47.032;8.310;2023-05-07T03:42:31;11.70;99.90
46085;DHT22;31823;47.032;8.310;2023-05-07T03:44:56;11.70;99.90
46085;DHT22;31823;47.032;8.310;2023-05-07T03:47:22;11.60;99.90
46085;DHT22;31823;47.032;8.310;2023-05-07T03:49:47;11.60;99.90
46085;DHT22;31823;47.032;8.310;2023-05-07T03:52:14;11.70;99.90
46085;DHT22;31823;47.032;8.310;2023-05-07T03:54:40;11.70;99.90
46085;DHT22;31823;47.032;8.310;2023-05-07T03:57:06;11.70;99.90
46085;DHT22;31823;47.032;8.310;2023-05-07T03:59:31;11.70;99.90
46085;DHT22;31823;47.032;8.310;2023-05-07T04:01:57;11.80;99.90
46085;DHT22;31823;47.032;8.310;2023-05-07T04:04:23;11.90;99.90
46085;DHT22;31823;47.032;8.310;2023-05-07T04:06:48;12.00;99.90
46085;DHT22;31823;47.032;8.310;2023-05-07T04:09:14;12.00;99.90
46085;DHT22;31823;47.032;8.310;2023-05-07T04:11:39;12.00;99.90
46085;DHT22;31823;47.032;8.310;2023-05-07T04:14:05;11.90;99.90
46085;DHT22;31823;47.032;8.310;2023-05-07T04:16:31;12.00;99.90
46085;DHT22;31823;47.032;8.310;2023-05-07T04:18:57;11.90;99.90
46085;DHT22;31823;47.032;8.310;2023-05-07T04:21:22;11.80;99.90
46085;DHT22;31823;47.032;8.310;2023-05-07T04:23:48;11.70;99.90
46085;DHT22;31823;47.032;8.310;2023-05-07T04:26:14;11.60;99.90
46085;DHT22;31823;47.032;8.310;2023-05-07T04:28:40;11.70;99.90
46085;DHT22;31823;47.032;8.310;2023-05-07T04:31:06;11.80;99.90
46085;DHT22;31823;47.032;8.310;2023-05-07T04:33:32;11.70;99.90
46085;DHT22;31823;47.032;8.310;2023-05-07T04:36:00;11.70;99.90
46085;DHT22;31823;47.032;8.310;2023-05-07T04:38:28;11.80;99.90
46085;DHT22;31823;47.032;8.310;2023-05-07T04:40:55;11.90;99.90
46085;DHT22;31823;47.032;8.310;2023-05-07T04:43:21;11.90;99.90
46085;DHT22;31823;47.032;8.310;2023-05-07T04:45:46;11.80;99.90
46085;DHT22;31823;47.032;8.310;2023-05-07T04:48:12;11.90;99.90
46085;DHT22;31823;47.032;8.310;2023-05-07T04:50:39;11.90;99.90
46085;DHT22;31823;47.032;8.310;2023-05-07T04:53:06;12.00;99.90
46085;DHT22;31823;47.032;8.310;2023-05-07T04:55:31;12.00;99.90
46085;DHT22;31823;47.032;8.310;2023-05-07T04:57:57;12.00;99.90
46085;DHT22;31823;47.032;8.310;2023-05-07T05:00:22;12.10;99.90
46085;DHT22;31823;47.032;8.310;2023-05-07T05:02:48;12.10;99.90
46085;DHT22;31823;47.032;8.310;2023-05-07T05:05:19;12.10;99.90
46085;DHT22;31823;47.032;8.310;2023-05-07T05:07:45;12.20;99.90
46085;DHT22;31823;47.032;8.310;2023-05-07T05:10:10;12.20;99.90
46085;DHT22;31823;47.032;8.310;2023-05-07T05:12:36;12.10;99.90
46085;DHT22;31823;47.032;8.310;2023-05-07T05:15:01;12.30;99.90
46085;DHT22;31823;47.032;8.310;2023-05-07T05:17:27;12.40;99.90
46085;DHT22;31823;47.032;8.310;2023-05-07T05:19:52;12.30;99.90
46085;DHT22;31823;47.032;8.310;2023-05-07T05:22:18;12.30;99.90
46085;DHT22;31823;47.032;8.310;2023-05-07T05:24:44;12.50;99.90
46085;DHT22;31823;47.032;8.310;2023-05-07T05:27:09;12.60;99.90
46085;DHT22;31823;47.032;8.310;2023-05-07T05:29:35;12.80;99.90
46085;DHT22;31823;47.032;8.310;2023-05-07T05:32:00;12.90;99.90
46085;DHT22;31823;47.032;8.310;2023-05-07T05:34:26;13.00;99.90
46085;DHT22;31823;47.032;8.310;2023-05-07T05:36:52;13.10;99.90
46085;DHT22;31823;47.032;8.310;2023-05-07T05:39:18;13.10;99.90
46085;DHT22;31823;47.032;8.310;2023-05-07T05:41:44;13.10;99.90
46085;DHT22;31823;47.032;8.310;2023-05-07T05:44:09;13.10;99.90
46085;DHT22;31823;47.032;8.310;2023-05-07T05:46:35;13.10;99.90
46085;DHT22;31823;47.032;8.310;2023-05-07T05:49:01;13.00;99.90
46085;DHT22;31823;47.032;8.310;2023-05-07T05:51:26;13.00;99.90
46085;DHT22;31823;47.032;8.310;2023-05-07T05:53:52;13.10;99.90
46085;DHT22;31823;47.032;8.310;2023-05-07T05:56:17;13.10;99.90
46085;DHT22;31823;47.032;8.310;2023-05-07T05:58:43;13.10;99.90
46085;DHT22;31823;47.032;8.310;2023-05-07T06:01:09;13.30;99.90
46085;DHT22;31823;47.032;8.310;2023-05-07T06:03:38;13.50;99.90
46085;DHT22;31823;47.032;8.310;2023-05-07T06:06:04;13.60;99.90
46085;DHT22;31823;47.032;8.310;2023-05-07T06:08:30;13.80;99.90
46085;DHT22;31823;47.032;8.310;2023-05-07T06:10:56;13.90;99.90
46085;DHT22;31823;47.032;8.310;2023-05-07T06:13:22;13.80;99.90
46085;DHT22;31823;47.032;8.310;2023-05-07T06:15:48;13.70;99.90
46085;DHT22;31823;47.032;8.310;2023-05-07T06:18:15;13.70;99.90
46085;DHT22;31823;47.032;8.310;2023-05-07T06:20:41;13.60;99.90
46085;DHT22;31823;47.032;8.310;2023-05-07T06:23:06;13.60;99.90
46085;DHT22;31823;47.032;8.310;2023-05-07T06:25:32;13.60;99.90
46085;DHT22;31823;47.032;8.310;2023-05-07T06:27:57;13.50;99.90
46085;DHT22;31823;47.032;8.310;2023-05-07T06:30:23;13.40;99.90
46085;DHT22;31823;47.032;8.310;2023-05-07T06:32:49;13.50;99.90
46085;DHT22;31823;47.032;8.310;2023-05-07T06:35:14;13.60;99.90
46085;DHT22;31823;47.032;8.310;2023-05-07T06:37:41;13.30;99.90
46085;DHT22;31823;47.032;8.310;2023-05-07T06:40:08;13.20;99.90
46085;DHT22;31823;47.032;8.310;2023-05-07T06:42:35;13.30;99.90
46085;DHT22;31823;47.032;8.310;2023-05-07T06:45:00;13.20;99.90
46085;DHT22;31823;47.032;8.310;2023-05-07T06:47:26;13.20;99.90
46085;DHT22;31823;47.032;8.310;2023-05-07T06:49:51;13.40;99.90
46085;DHT22;31823;47.032;8.310;2023-05-07T06:52:17;13.30;99.90
46085;DHT22;31823;47.032;8.310;2023-05-07T06:54:42;13.30;99.90
46085;DHT22;31823;47.032;8.310;2023-05-07T06:57:08;13.10;99.90
46085;DHT22;31823;47.032;8.310;2023-05-07T06:59:34;13.20;99.90
46085;DHT22;31823;47.032;8.310;2023-05-07T07:01:59;13.30;99.90
46085;DHT22;31823;47.032;8.310;2023-05-07T07:04:25;13.30;99.90
46085;DHT22;31823;47.032;8.310;2023-05-07T07:06:54;13.20;99.90
46085;DHT22;31823;47.032;8.310;2023-05-07T07:09:20;13.20;99.90
46085;DHT22;31823;47.032;8.310;2023-05-07T07:11:46;13.30;99.90
46085;DHT22;31823;47.032;8.310;2023-05-07T07:14:11;13.40;99.90
46085;DHT22;31823;47.032;8.310;2023-05-07T07:16:37;13.50;99.90
46085;DHT22;31823;47.032;8.310;2023-05-07T07:19:02;13.30;99.90
46085;DHT22;31823;47.032;8.310;2023-05-07T07:21:28;13.40;99.90
46085;DHT22;31823;47.032;8.310;2023-05-07T07:23:54;13.60;99.90
46085;DHT22;31823;47.032;8.310;2023-05-07T07:26:19;13.70;99.90
46085;DHT22;31823;47.032;8.310;2023-05-07T07:28:45;13.90;99.90
46085;DHT22;31823;47.032;8.310;2023-05-07T07:31:11;14.10;99.90
46085;DHT22;31823;47.032;8.310;2023-05-07T07:33:37;14.20;99.90
46085;DHT22;31823;47.032;8.310;2023-05-07T07:36:03;14.20;99.90
46085;DHT22;31823;47.032;8.310;2023-05-07T07:38:28;14.20;99.90
46085;DHT22;31823;47.032;8.310;2023-05-07T07:40:54;14.20;99.90
46085;DHT22;31823;47.032;8.310;2023-05-07T07:43:20;13.60;99.90
46085;DHT22;31823;47.032;8.310;2023-05-07T07:45:45;13.60;99.90
46085;DHT22;31823;47.032;8.310;2023-05-07T07:48:11;13.90;99.90
46085;DHT22;31823;47.032;8.310;2023-05-07T07:50:37;14.20;99.90
46085;DHT22;31823;47.032;8.310;2023-05-07T07:53:03;14.30;99.90
46085;DHT22;31823;47.032;8.310;2023-05-07T07:55:28;14.20;99.90
46085;DHT22;31823;47.032;8.310;2023-05-07T07:57:54;14.10;99.90
46085;DHT22;31823;47.032;8.310;2023-05-07T08:00:20;14.10;99.90
46085;DHT22;31823;47.032;8.310;2023-05-07T08:02:46;14.20;99.90
46085;DHT22;31823;47.032;8.310;2023-05-07T08:05:11;14.60;99.90
46085;DHT22;31823;47.032;8.310;2023-05-07T08:07:37;14.70;99.90
46085;DHT22;31823;47.032;8.310;2023-05-07T08:10:03;14.80;99.90
46085;DHT22;31823;47.032;8.310;2023-05-07T08:12:29;15.20;99.90
46085;DHT22;31823;47.032;8.310;2023-05-07T08:14:55;15.40;99.90
46085;DHT22;31823;47.032;8.310;2023-05-07T08:17:20;15.60;99.90
46085;DHT22;31823;47.032;8.310;2023-05-07T08:19:47;15.60;99.90
46085;DHT22;31823;47.032;8.310;2023-05-07T08:22:13;16.20;99.90
46085;DHT22;31823;47.032;8.310;2023-05-07T08:24:39;16.30;99.90
46085;DHT22;31823;47.032;8.310;2023-05-07T08:27:05;16.40;99.90
46085;DHT22;31823;47.032;8.310;2023-05-07T08:29:30;16.10;99.90
46085;DHT22;31823;47.032;8.310;2023-05-07T08:31:56;16.40;99.90
46085;DHT22;31823;47.032;8.310;2023-05-07T08:34:22;16.80;99.90
46085;DHT22;31823;47.032;8.310;2023-05-07T08:36:48;17.00;99.90
46085;DHT22;31823;47.032;8.310;2023-05-07T08:39:17;17.10;99.90
46085;DHT22;31823;47.032;8.310;2023-05-07T08:41:45;17.10;99.90
46085;DHT22;31823;47.032;8.310;2023-05-07T08:44:13;17.10;99.90
46085;DHT22;31823;47.032;8.310;2023-05-07T08:46:41;17.10;99.90
46085;DHT22;31823;47.032;8.310;2023-05-07T08:49:07;16.90;99.90
46085;DHT22;31823;47.032;8.310;2023-05-07T08:51:33;17.00;99.90
46085;DHT22;31823;47.032;8.310;2023-05-07T08:53:59;16.90;99.90
46085;DHT22;31823;47.032;8.310;2023-05-07T08:56:26;16.70;99.90
46085;DHT22;31823;47.032;8.310;2023-05-07T08:58:52;16.80;99.90
46085;DHT22;31823;47.032;8.310;2023-05-07T09:01:21;17.00;99.90
46085;DHT22;31823;47.032;8.310;2023-05-07T09:03:47;17.00;99.90
46085;DHT22;31823;47.032;8.310;2023-05-07T09:06:13;17.30;99.90
46085;DHT22;31823;47.032;8.310;2023-05-07T09:08:38;17.50;99.90
46085;DHT22;31823;47.032;8.310;2023-05-07T09:11:04;17.50;99.90
46085;DHT22;31823;47.032;8.310;2023-05-07T09:13:30;17.60;99.90
46085;DHT22;31823;47.032;8.310;2023-05-07T09:15:55;17.50;99.90
46085;DHT22;31823;47.032;8.310;2023-05-07T09:18:23;17.50;99.90
46085;DHT22;31823;47.032;8.310;2023-05-07T09:20:49;17.70;99.90
46085;DHT22;31823;47.032;8.310;2023-05-07T09:23:14;17.80;99.90
46085;DHT22;31823;47.032;8.310;2023-05-07T09:25:40;18.00;99.90
46085;DHT22;31823;47.032;8.310;2023-05-07T09:28:06;18.00;99.90
46085;DHT22;31823;47.032;8.310;2023-05-07T09:30:33;18.10;99.90
46085;DHT22;31823;47.032;8.310;2023-05-07T09:33:00;18.00;99.90
46085;DHT22;31823;47.032;8.310;2023-05-07T09:35:26;17.80;99.90
46085;DHT22;31823;47.032;8.310;2023-05-07T09:37:59;17.90;99.90
46085;DHT22;31823;47.032;8.310;2023-05-07T09:40:29;18.00;99.90
46085;DHT22;31823;47.032;8.310;2023-05-07T09:42:55;18.10;99.90
46085;DHT22;31823;47.032;8.310;2023-05-07T09:45:22;18.00;99.90
46085;DHT22;31823;47.032;8.310;2023-05-07T09:47:49;18.20;99.90
46085;DHT22;31823;47.032;8.310;2023-05-07T09:50:19;18.20;99.90
46085;DHT22;31823;47.032;8.310;2023-05-07T09:52:47;18.40;99.90
46085;DHT22;31823;47.032;8.310;2023-05-07T09:55:13;18.20;99.90
46085;DHT22;31823;47.032;8.310;2023-05-07T09:57:40;18.20;99.90
46085;DHT22;31823;47.032;8.310;2023-05-07T10:00:07;18.00;99.90
46085;DHT22;31823;47.032;8.310;2023-05-07T10:02:35;18.00;99.90
46085;DHT22;31823;47.032;8.310;2023-05-07T10:05:02;18.00;99.90
46085;DHT22;31823;47.032;8.310;2023-05-07T10:07:28;17.90;99.90
46085;DHT22;31823;47.032;8.310;2023-05-07T10:09:55;18.00;99.90
46085;DHT22;31823;47.032;8.310;2023-05-07T10:12:21;18.00;99.90
46085;DHT22;31823;47.032;8.310;2023-05-07T10:14:47;18.10;99.90
46085;DHT22;31823;47.032;8.310;2023-05-07T10:17:16;18.20;99.90
46085;DHT22;31823;47.032;8.310;2023-05-07T10:19:44;18.10;99.90
46085;DHT22;31823;47.032;8.310;2023-05-07T10:22:10;18.00;99.90
46085;DHT22;31823;47.032;8.310;2023-05-07T10:24:36;17.90;99.90
46085;DHT22;31823;47.032;8.310;2023-05-07T10:27:09;17.90;99.90
46085;DHT22;31823;47.032;8.310;2023-05-07T10:32:45;18.00;99.90
46085;DHT22;31823;47.032;8.310;2023-05-07T10:35:36;18.00;99.90
46085;DHT22;31823;47.032;8.310;2023-05-07T10:38:03;17.90;99.90
46085;DHT22;31823;47.032;8.310;2023-05-07T10:40:31;17.90;99.90
46085;DHT22;31823;47.032;8.310;2023-05-07T10:43:01;17.90;99.90
46085;DHT22;31823;47.032;8.310;2023-05-07T10:45:28;18.00;99.90
46085;DHT22;31823;47.032;8.310;2023-05-07T10:48:13;18.00;99.90
46085;DHT22;31823;47.032;8.310;2023-05-07T10:50:41;18.00;99.90
46085;DHT22;31823;47.032;8.310;2023-05-07T10:53:20;18.10;99.90
46085;DHT22;31823;47.032;8.310;2023-05-07T10:55:48;18.50;99.90
46085;DHT22;31823;47.032;8.310;2023-05-07T10:58:29;18.80;99.90
46085;DHT22;31823;47.032;8.310;2023-05-07T11:00:59;18.90;99.90
46085;DHT22;31823;47.032;8.310;2023-05-07T11:03:25;19.10;99.90
46085;DHT22;31823;47.032;8.310;2023-05-07T11:06:16;19.20;99.90
46085;DHT22;31823;47.032;8.310;2023-05-07T11:08:55;19.10;99.90
46085;DHT22;31823;47.032;8.310;2023-05-07T11:11:49;19.00;99.90
46085;DHT22;31823;47.032;8.310;2023-05-07T11:17:09;19.70;99.90
46085;DHT22;31823;47.032;8.310;2023-05-07T11:19:54;20.20;99.90
46085;DHT22;31823;47.032;8.310;2023-05-07T11:25:02;20.20;99.90
46085;DHT22;31823;47.032;8.310;2023-05-07T11:27:29;20.80;99.90
46085;DHT22;31823;47.032;8.310;2023-05-07T11:29:55;21.20;99.90
46085;DHT22;31823;47.032;8.310;2023-05-07T11:32:29;21.50;99.90
46085;DHT22;31823;47.032;8.310;2023-05-07T11:34:56;21.80;99.90
46085;DHT22;31823;47.032;8.310;2023-05-07T11:37:23;21.70;99.90
46085;DHT22;31823;47.032;8.310;2023-05-07T11:39:49;21.80;99.90
46085;DHT22;31823;47.032;8.310;2023-05-07T11:42:30;21.60;99.90
46085;DHT22;31823;47.032;8.310;2023-05-07T11:44:56;22.10;99.90
46085;DHT22;31823;47.032;8.310;2023-05-07T11:47:22;22.10;99.90
46085;DHT22;31823;47.032;8.310;2023-05-07T11:49:50;22.50;99.90
46085;DHT22;31823;47.032;8.310;2023-05-07T11:52:16;22.60;99.90
46085;DHT22;31823;47.032;8.310;2023-05-07T11:54:52;22.60;99.90
46085;DHT22;31823;47.032;8.310;2023-05-07T11:57:18;22.40;99.90
46085;DHT22;31823;47.032;8.310;2023-05-07T11:59:43;22.50;99.90
46085;DHT22;31823;47.032;8.310;2023-05-07T12:02:17;22.60;99.90
46085;DHT22;31823;47.032;8.310;2023-05-07T12:04:44;22.90;99.90
46085;DHT22;31823;47.032;8.310;2023-05-07T12:07:13;22.60;99.90
46085;DHT22;31823;47.032;8.310;2023-05-07T12:09:41;22.70;99.90
46085;DHT22;31823;47.032;8.310;2023-05-07T12:12:07;22.30;99.90
46085;DHT22;31823;47.032;8.310;2023-05-07T12:14:32;21.50;99.90
46085;DHT22;31823;47.032;8.310;2023-05-07T12:17:02;21.20;99.90
46085;DHT22;31823;47.032;8.310;2023-05-07T12:19:29;21.10;99.90
46085;DHT22;31823;47.032;8.310;2023-05-07T12:21:56;21.30;99.90
46085;DHT22;31823;47.032;8.310;2023-05-07T12:24:22;21.00;99.90
46085;DHT22;31823;47.032;8.310;2023-05-07T12:26:48;20.80;99.90
46085;DHT22;31823;47.032;8.310;2023-05-07T12:29:13;20.80;99.90
46085;DHT22;31823;47.032;8.310;2023-05-07T12:31:42;20.70;99.90
46085;DHT22;31823;47.032;8.310;2023-05-07T12:34:11;20.70;99.90
46085;DHT22;31823;47.032;8.310;2023-05-07T12:36:38;20.60;99.90
46085;DHT22;31823;47.032;8.310;2023-05-07T12:39:07;20.30;99.90
46085;DHT22;31823;47.032;8.310;2023-05-07T12:41:55;20.10;99.90
46085;DHT22;31823;47.032;8.310;2023-05-07T12:44:24;19.90;99.90
46085;DHT22;31823;47.032;8.310;2023-05-07T12:46:51;19.70;99.90
46085;DHT22;31823;47.032;8.310;2023-05-07T12:49:17;19.40;99.90
46085;DHT22;31823;47.032;8.310;2023-05-07T12:51:47;19.30;99.90
46085;DHT22;31823;47.032;8.310;2023-05-07T12:54:14;19.00;99.90
46085;DHT22;31823;47.032;8.310;2023-05-07T12:57:03;18.70;99.90
46085;DHT22;31823;47.032;8.310;2023-05-07T12:59:41;18.40;99.90
46085;DHT22;31823;47.032;8.310;2023-05-07T13:02:08;18.30;99.90
46085;DHT22;31823;47.032;8.310;2023-05-07T13:04:35;18.20;99.90
46085;DHT22;31823;47.032;8.310;2023-05-07T13:07:01;18.10;99.90
46085;DHT22;31823;47.032;8.310;2023-05-07T13:09:27;18.20;99.90
46085;DHT22;31823;47.032;8.310;2023-05-07T13:11:54;18.00;99.90
46085;DHT22;31823;47.032;8.310;2023-05-07T13:14:20;17.80;99.90
46085;DHT22;31823;47.032;8.310;2023-05-07T13:16:49;17.80;99.90
46085;DHT22;31823;47.032;8.310;2023-05-07T13:19:15;17.70;99.90
46085;DHT22;31823;47.032;8.310;2023-05-07T13:21:40;17.70;99.90
46085;DHT22;31823;47.032;8.310;2023-05-07T13:24:06;17.70;99.90
46085;DHT22;31823;47.032;8.310;2023-05-07T13:26:32;17.70;99.90
46085;DHT22;31823;47.032;8.310;2023-05-07T13:28:57;17.50;99.90
46085;DHT22;31823;47.032;8.310;2023-05-07T13:31:24;17.70;99.90
46085;DHT22;31823;47.032;8.310;2023-05-07T13:33:50;17.60;99.90
46085;DHT22;31823;47.032;8.310;2023-05-07T13:36:15;17.70;99.90
46085;DHT22;31823;47.032;8.310;2023-05-07T13:38:41;17.80;99.90
46085;DHT22;31823;47.032;8.310;2023-05-07T13:41:06;17.80;99.90
46085;DHT22;31823;47.032;8.310;2023-05-07T13:43:32;17.90;99.90
46085;DHT22;31823;47.032;8.310;2023-05-07T13:46:00;17.90;99.90
46085;DHT22;31823;47.032;8.310;2023-05-07T13:48:26;18.00;99.90
46085;DHT22;31823;47.032;8.310;2023-05-07T13:50:53;18.40;99.90
46085;DHT22;31823;47.032;8.310;2023-05-07T13:53:19;18.80;99.90
46085;DHT22;31823;47.032;8.310;2023-05-07T13:55:45;19.20;99.90
46085;DHT22;31823;47.032;8.310;2023-05-07T13:58:11;18.70;99.90
46085;DHT22;31823;47.032;8.310;2023-05-07T14:00:36;18.40;99.90
46085;DHT22;31823;47.032;8.310;2023-05-07T14:03:04;18.20;99.90
46085;DHT22;31823;47.032;8.310;2023-05-07T14:05:30;18.00;99.90
46085;DHT22;31823;47.032;8.310;2023-05-07T14:08:02;18.00;99.90
46085;DHT22;31823;47.032;8.310;2023-05-07T14:10:29;17.90;99.90
46085;DHT22;31823;47.032;8.310;2023-05-07T14:12:57;17.80;99.90
46085;DHT22;31823;47.032;8.310;2023-05-07T14:15:22;17.70;99.90
46085;DHT22;31823;47.032;8.310;2023-05-07T14:17:48;17.70;99.90
46085;DHT22;31823;47.032;8.310;2023-05-07T14:20:13;17.60;99.90
46085;DHT22;31823;47.032;8.310;2023-05-07T14:22:39;17.40;99.90
46085;DHT22;31823;47.032;8.310;2023-05-07T14:25:05;17.40;99.90
46085;DHT22;31823;47.032;8.310;2023-05-07T14:27:31;17.30;99.90
46085;DHT22;31823;47.032;8.310;2023-05-07T14:29:57;17.30;99.90
46085;DHT22;31823;47.032;8.310;2023-05-07T14:32:22;17.40;99.90
46085;DHT22;31823;47.032;8.310;2023-05-07T14:34:48;17.50;99.90
46085;DHT22;31823;47.032;8.310;2023-05-07T14:37:13;17.40;99.90
46085;DHT22;31823;47.032;8.310;2023-05-07T14:39:39;17.40;99.90
46085;DHT22;31823;47.032;8.310;2023-05-07T14:42:05;17.30;99.90
46085;DHT22;31823;47.032;8.310;2023-05-07T14:44:34;17.30;99.90
46085;DHT22;31823;47.032;8.310;2023-05-07T14:46:59;17.40;99.90
46085;DHT22;31823;47.032;8.310;2023-05-07T14:49:25;17.30;99.90
46085;DHT22;31823;47.032;8.310;2023-05-07T14:51:51;17.30;99.90
46085;DHT22;31823;47.032;8.310;2023-05-07T14:54:16;17.20;99.90
46085;DHT22;31823;47.032;8.310;2023-05-07T14:56:42;17.20;99.90
46085;DHT22;31823;47.032;8.310;2023-05-07T14:59:08;17.20;99.90
46085;DHT22;31823;47.032;8.310;2023-05-07T15:01:35;17.20;99.90
46085;DHT22;31823;47.032;8.310;2023-05-07T15:04:02;17.20;99.90
46085;DHT22;31823;47.032;8.310;2023-05-07T15:06:28;17.10;99.90
46085;DHT22;31823;47.032;8.310;2023-05-07T15:08:54;16.90;99.90
46085;DHT22;31823;47.032;8.310;2023-05-07T15:11:20;16.80;99.90
46085;DHT22;31823;47.032;8.310;2023-05-07T15:13:45;16.80;99.90
46085;DHT22;31823;47.032;8.310;2023-05-07T15:16:11;16.80;99.90
46085;DHT22;31823;47.032;8.310;2023-05-07T15:18:36;16.80;99.90
46085;DHT22;31823;47.032;8.310;2023-05-07T15:21:02;16.60;99.90
46085;DHT22;31823;47.032;8.310;2023-05-07T15:23:28;16.60;99.90
46085;DHT22;31823;47.032;8.310;2023-05-07T15:25:53;16.60;99.90
46085;DHT22;31823;47.032;8.310;2023-05-07T15:28:19;16.60;99.90
46085;DHT22;31823;47.032;8.310;2023-05-07T15:30:45;16.50;99.90
46085;DHT22;31823;47.032;8.310;2023-05-07T15:33:10;16.50;99.90
46085;DHT22;31823;47.032;8.310;2023-05-07T15:35:36;16.40;99.90